Time;durP1;ratioP1;P1;durP2;ratioP2;P2;SDS_P1;SDS_P2;PMS_P1;PMS_P2;Temp;Humidity;BMP_temperature;BMP_pressure;BME280_temperature;BME280_humidity;BME280_pressure;Samples;Min_cycle;Max_cycle;Signal;HPM_P1;HPM_P2
2023/04/10 00:00:13;;;;;;;34.30;12.98;;;;;;;;;;4853362;29;20775;-44
2023/04/10 00:02:43;;;;;;;33.92;11.75;;;;;;;;;;4893999;29;20063;-43
2023/04/10 00:05:11;;;;;;;30.83;11.80;;;;;;;;;;4863644;29;20049;-44
2023/04/10 00:07:39;;;;;;;30.63;11.65;;;;;;;;;;4871909;29;20032;-44
2023/04/10 00:10:07;;;;;;;34.77;11.87;;;;;;;;;;4862951;29;20045;-45
2023/04/10 00:12:35;;;;;;;31.58;11.40;;;;;;;;;;4875895;29;20053;-43
2023/04/10 00:15:05;;;;;;;29.80;10.50;;;;;;;;;;4860398;29;20083;-43
2023/04/10 00:17:32;;;;;;;29.10;10.75;;;;;;;;;;4863285;29;20072;-43
2023/04/10 00:20:01;;;;;;;32.58;11.77;;;;;;;;;;4862419;29;20166;-45
2023/04/10 00:22:28;;;;;;;29.30;11.17;;;;;;;;;;4851464;29;20467;-44
2023/04/10 00:24:56;;;;;;;31.30;11.13;;;;;;;;;;4859990;29;20666;-46
2023/04/10 00:27:24;;;;;;;27.55;11.50;;;;;;;;;;4863786;29;20033;-44
2023/04/10 00:29:51;;;;;;;27.67;10.45;;;;;;;;;;4863750;29;20227;-45
2023/04/10 00:32:20;;;;;;;29.88;11.38;;;;;;;;;;4855581;29;20474;-46
2023/04/10 00:34:49;;;;;;;28.90;10.47;;;;;;;;;;4874742;29;20056;-44
2023/04/10 00:37:16;;;;;;;29.65;11.18;;;;;;;;;;4869633;29;20047;-46
2023/04/10 00:39:44;;;;;;;26.13;10.07;;;;;;;;;;4849761;29;20064;-43
2023/04/10 00:42:11;;;;;;;30.30;10.80;;;;;;;;;;4855099;29;20051;-44
2023/04/10 00:44:40;;;;;;;27.80;10.35;;;;;;;;;;4859378;29;20510;-43
2023/04/10 00:47:08;;;;;;;31.07;10.83;;;;;;;;;;4860595;29;20049;-46
2023/04/10 00:49:37;;;;;;;32.38;12.40;;;;;;;;;;4867942;29;20362;-43
2023/04/10 00:52:04;;;;;;;28.50;11.05;;;;;;;;;;4851281;29;20101;-43
2023/04/10 00:54:34;;;;;;;32.60;11.38;;;;;;;;;;4863863;29;20104;-43
2023/04/10 00:57:03;;;;;;;25.35;10.82;;;;;;;;;;4863678;29;20538;-43
2023/04/10 00:59:31;;;;;;;27.83;10.97;;;;;;;;;;4865597;29;20048;-43
2023/04/10 01:01:59;;;;;;;30.42;10.90;;;;;;;;;;4851343;29;20696;-43
2023/04/10 01:04:28;;;;;;;26.38;9.98;;;;;;;;;;4853848;29;20239;-43
2023/04/10 01:07:00;;;;;;;28.27;11.07;;;;;;;;;;4867103;29;20076;-43
2023/04/10 01:09:34;;;;;;;25.52;9.80;;;;;;;;;;4863297;29;20120;-43
2023/04/10 01:12:08;;;;;;;26.97;10.57;;;;;;;;;;4849391;29;20049;-44
2023/04/10 01:14:39;;;;;;;23.35;9.70;;;;;;;;;;4835582;29;20045;-43
2023/04/10 01:17:10;;;;;;;24.20;9.98;;;;;;;;;;4860824;29;20493;-43
2023/04/10 01:19:51;;;;;;;23.50;9.07;;;;;;;;;;4871624;29;20040;-43
2023/04/10 01:22:23;;;;;;;24.08;10.18;;;;;;;;;;4849933;29;20488;-45
2023/04/10 01:25:01;;;;;;;28.20;10.37;;;;;;;;;;4842335;29;20041;-44
2023/04/10 01:27:36;;;;;;;23.85;9.10;;;;;;;;;;4836949;29;20099;-44
2023/04/10 01:30:06;;;;;;;26.13;9.35;;;;;;;;;;4849079;29;20040;-45
2023/04/10 01:32:34;;;;;;;24.67;9.35;;;;;;;;;;4854653;29;20551;-43
2023/04/10 01:35:05;;;;;;;24.10;9.05;;;;;;;;;;4865644;29;20499;-44
2023/04/10 01:37:36;;;;;;;24.23;9.53;;;;;;;;;;4831062;29;20740;-43
2023/04/10 01:40:05;;;;;;;22.38;8.30;;;;;;;;;;4855397;29;20056;-44
2023/04/10 01:42:35;;;;;;;21.55;8.27;;;;;;;;;;4875735;29;20048;-46
2023/04/10 01:45:03;;;;;;;21.40;8.15;;;;;;;;;;4853167;29;20045;-45
2023/04/10 01:47:33;;;;;;;22.63;7.85;;;;;;;;;;4865521;29;20131;-44
2023/04/10 01:50:01;;;;;;;18.77;6.93;;;;;;;;;;4863494;29;20135;-43
2023/04/10 01:52:30;;;;;;;19.65;8.20;;;;;;;;;;4849115;29;21071;-44
2023/04/10 01:54:58;;;;;;;19.38;7.30;;;;;;;;;;4859282;29;20053;-43
2023/04/10 01:57:25;;;;;;;19.17;7.25;;;;;;;;;;4859573;29;20884;-43
2023/04/10 01:59:53;;;;;;;18.52;6.82;;;;;;;;;;4851731;29;20053;-43
2023/04/10 02:02:21;;;;;;;17.97;7.03;;;;;;;;;;4858543;29;20088;-43
2023/04/10 02:04:50;;;;;;;21.00;8.00;;;;;;;;;;4875695;29;20507;-43
2023/04/10 02:07:20;;;;;;;15.43;6.55;;;;;;;;;;4855456;29;20602;-43
2023/04/10 02:09:50;;;;;;;19.20;7.85;;;;;;;;;;4875167;29;20116;-43
2023/04/10 02:12:20;;;;;;;20.40;6.43;;;;;;;;;;4864907;29;20097;-43
2023/04/10 02:14:48;;;;;;;20.83;7.33;;;;;;;;;;4861330;29;20058;-44
2023/04/10 02:17:18;;;;;;;19.40;6.80;;;;;;;;;;4867919;29;20064;-43
2023/04/10 02:19:47;;;;;;;17.40;7.07;;;;;;;;;;4859080;29;20045;-44
2023/04/10 02:22:16;;;;;;;16.52;6.35;;;;;;;;;;4865111;29;20051;-43
2023/04/10 02:24:44;;;;;;;14.70;5.85;;;;;;;;;;4863517;29;20077;-43
2023/04/10 02:27:11;;;;;;;15.63;5.97;;;;;;;;;;4869942;29;20033;-43
2023/04/10 02:29:39;;;;;;;16.98;6.40;;;;;;;;;;4854613;29;20123;-43
2023/04/10 02:32:07;;;;;;;14.93;6.05;;;;;;;;;;4863916;29;20531;-44
2023/04/10 02:34:35;;;;;;;14.60;5.95;;;;;;;;;;4861344;29;20050;-44
2023/04/10 02:37:02;;;;;;;14.30;5.70;;;;;;;;;;4852949;29;20044;-44
2023/04/10 02:39:32;;;;;;;14.57;5.33;;;;;;;;;;4863472;29;20674;-46
2023/04/10 02:42:00;;;;;;;14.00;5.90;;;;;;;;;;4868888;29;20076;-46
2023/04/10 02:44:27;;;;;;;14.68;5.60;;;;;;;;;;4854799;29;20139;-43
2023/04/10 02:46:55;;;;;;;15.65;5.95;;;;;;;;;;4857973;29;20076;-43
2023/04/10 02:49:23;;;;;;;11.48;4.55;;;;;;;;;;4859367;29;20176;-44
2023/04/10 02:51:51;;;;;;;15.60;5.43;;;;;;;;;;4853999;29;20562;-43
2023/04/10 02:54:18;;;;;;;10.73;4.15;;;;;;;;;;4859725;29;20033;-45
2023/04/10 02:56:47;;;;;;;12.27;4.68;;;;;;;;;;4854852;29;20449;-43
2023/04/10 02:59:16;;;;;;;14.57;4.55;;;;;;;;;;4856099;29;20055;-44
2023/04/10 03:01:45;;;;;;;10.50;4.15;;;;;;;;;;4857000;29;20826;-43
2023/04/10 03:04:13;;;;;;;10.57;4.20;;;;;;;;;;4853191;29;20049;-43
2023/04/10 03:06:41;;;;;;;12.38;4.65;;;;;;;;;;4856496;29;20068;-43
2023/04/10 03:09:09;;;;;;;9.43;4.10;;;;;;;;;;4866631;29;20127;-43
2023/04/10 03:11:36;;;;;;;12.48;4.20;;;;;;;;;;4851494;29;20153;-43
2023/04/10 03:14:08;;;;;;;9.95;4.20;;;;;;;;;;4860141;29;20060;-44
2023/04/10 03:16:36;;;;;;;10.10;4.00;;;;;;;;;;4848493;29;20372;-43
2023/04/10 03:19:03;;;;;;;12.15;3.80;;;;;;;;;;4872665;29;20059;-43
2023/04/10 03:21:31;;;;;;;8.65;3.20;;;;;;;;;;4841407;29;20781;-43
2023/04/10 03:23:59;;;;;;;10.60;3.63;;;;;;;;;;4861142;29;20152;-43
2023/04/10 03:26:27;;;;;;;8.30;2.92;;;;;;;;;;4856679;29;20051;-44
2023/04/10 03:28:55;;;;;;;8.13;3.07;;;;;;;;;;4837590;29;20514;-43
2023/04/10 03:31:24;;;;;;;8.98;3.30;;;;;;;;;;4867685;29;20103;-44
2023/04/10 03:33:52;;;;;;;8.48;2.38;;;;;;;;;;4854695;29;20744;-43
2023/04/10 03:36:20;;;;;;;8.52;2.45;;;;;;;;;;4853223;29;20036;-44
2023/04/10 03:38:47;;;;;;;7.82;1.98;;;;;;;;;;4840302;29;21494;-43
2023/04/10 03:41:16;;;;;;;6.90;2.03;;;;;;;;;;4860678;29;20052;-45
2023/04/10 03:43:43;;;;;;;6.47;2.05;;;;;;;;;;4867631;29;20060;-47
2023/04/10 03:46:11;;;;;;;7.50;1.50;;;;;;;;;;4842562;29;20124;-44
2023/04/10 03:48:42;;;;;;;6.05;1.75;;;;;;;;;;4851803;29;20576;-44
2023/04/10 03:51:22;;;;;;;5.57;1.42;;;;;;;;;;4851009;29;20096;-44
2023/04/10 03:53:50;;;;;;;4.33;1.10;;;;;;;;;;4849907;29;20113;-44
2023/04/10 03:56:18;;;;;;;4.78;1.35;;;;;;;;;;4859767;29;20124;-44
2023/04/10 03:58:46;;;;;;;5.00;1.30;;;;;;;;;;4855762;29;20052;-44
2023/04/10 04:01:13;;;;;;;4.50;1.05;;;;;;;;;;4864748;29;20040;-43
2023/04/10 04:03:42;;;;;;;4.47;0.88;;;;;;;;;;4877086;29;20044;-44
2023/04/10 04:06:10;;;;;;;3.97;0.70;;;;;;;;;;4836322;29;20688;-44
2023/04/10 04:08:38;;;;;;;5.93;1.33;;;;;;;;;;4863324;29;20515;-43
2023/04/10 04:11:06;;;;;;;4.05;0.90;;;;;;;;;;4871435;29;20487;-43
2023/04/10 04:13:33;;;;;;;4.80;0.75;;;;;;;;;;4860887;29;20505;-43
2023/04/10 04:16:01;;;;;;;4.38;0.82;;;;;;;;;;4879383;29;20491;-43
2023/04/10 04:18:29;;;;;;;3.07;0.67;;;;;;;;;;4853378;29;20431;-45
2023/04/10 04:20:58;;;;;;;3.20;0.75;;;;;;;;;;4883267;29;20095;-43
2023/04/10 04:23:25;;;;;;;3.22;0.63;;;;;;;;;;4844633;29;20582;-44
2023/04/10 04:25:54;;;;;;;4.07;0.95;;;;;;;;;;4857816;29;20088;-44
2023/04/10 04:28:23;;;;;;;3.78;0.88;;;;;;;;;;4871534;29;20063;-46
2023/04/10 04:30:51;;;;;;;2.60;0.30;;;;;;;;;;4873838;29;20064;-44
2023/04/10 04:33:19;;;;;;;3.50;0.82;;;;;;;;;;4856402;29;20087;-43
2023/04/10 04:35:47;;;;;;;3.53;0.68;;;;;;;;;;4869548;29;20044;-45
2023/04/10 04:38:16;;;;;;;2.80;0.63;;;;;;;;;;4854915;29;20040;-43
2023/04/10 04:40:43;;;;;;;3.03;0.60;;;;;;;;;;4860726;29;20127;-43
2023/04/10 04:43:11;;;;;;;4.33;0.80;;;;;;;;;;4853307;29;20101;-44
2023/04/10 04:45:39;;;;;;;4.72;1.10;;;;;;;;;;4859275;29;20076;-45
2023/04/10 04:48:06;;;;;;;4.18;1.10;;;;;;;;;;4858770;29;20065;-44
2023/04/10 04:50:34;;;;;;;4.65;1.23;;;;;;;;;;4866923;29;20459;-43
2023/04/10 04:53:02;;;;;;;4.68;1.23;;;;;;;;;;4866534;29;20045;-44
2023/04/10 04:55:33;;;;;;;5.57;0.90;;;;;;;;;;4856710;29;20041;-43
2023/04/10 04:58:01;;;;;;;4.82;1.20;;;;;;;;;;4865744;29;20134;-45
2023/04/10 05:00:28;;;;;;;4.72;1.20;;;;;;;;;;4856136;29;20069;-44
2023/04/10 05:02:56;;;;;;;4.90;1.20;;;;;;;;;;4846596;29;20063;-44
2023/04/10 05:05:24;;;;;;;4.50;0.98;;;;;;;;;;4862516;29;20040;-43
2023/04/10 05:07:51;;;;;;;4.37;0.97;;;;;;;;;;4862274;29;20613;-45
2023/04/10 05:10:19;;;;;;;4.82;1.10;;;;;;;;;;4836767;29;20081;-44
2023/04/10 05:12:48;;;;;;;5.20;1.50;;;;;;;;;;4843407;29;20069;-44
2023/04/10 05:15:16;;;;;;;5.50;1.23;;;;;;;;;;4869333;29;20534;-44
2023/04/10 05:17:43;;;;;;;6.35;1.55;;;;;;;;;;4862752;29;20496;-43
2023/04/10 05:20:12;;;;;;;4.87;1.30;;;;;;;;;;4860071;29;20672;-44
2023/04/10 05:22:39;;;;;;;5.13;1.40;;;;;;;;;;4863972;29;20048;-43
2023/04/10 05:25:07;;;;;;;5.32;1.50;;;;;;;;;;4853754;29;20037;-43
2023/04/10 05:27:35;;;;;;;5.30;1.30;;;;;;;;;;4868592;29;20547;-48
2023/04/10 05:30:05;;;;;;;6.03;1.30;;;;;;;;;;4842045;29;20143;-44
2023/04/10 05:32:33;;;;;;;5.53;1.13;;;;;;;;;;4862654;29;20140;-44
2023/04/10 05:35:00;;;;;;;5.07;1.33;;;;;;;;;;4849489;29;20037;-44
2023/04/10 05:37:28;;;;;;;6.65;1.67;;;;;;;;;;4860900;29;20132;-43
2023/04/10 05:39:56;;;;;;;6.13;1.63;;;;;;;;;;4856796;29;20052;-44
2023/04/10 05:42:24;;;;;;;5.35;1.30;;;;;;;;;;4840468;29;20132;-43
2023/04/10 05:44:52;;;;;;;5.43;1.63;;;;;;;;;;4852503;29;20044;-44
2023/04/10 05:47:22;;;;;;;5.53;1.42;;;;;;;;;;4862458;29;20075;-44
2023/04/10 05:49:50;;;;;;;4.00;1.13;;;;;;;;;;4858933;29;20492;-45
2023/04/10 05:52:18;;;;;;;4.57;1.40;;;;;;;;;;4857865;29;20514;-45
2023/04/10 05:54:45;;;;;;;4.75;1.33;;;;;;;;;;4846466;29;20636;-44
2023/04/10 05:57:13;;;;;;;3.90;1.30;;;;;;;;;;4863873;29;20284;-45
2023/04/10 05:59:41;;;;;;;6.15;1.40;;;;;;;;;;4851687;29;20242;-44
2023/04/10 06:02:08;;;;;;;4.63;1.42;;;;;;;;;;4846228;29;20044;-45
2023/04/10 06:04:38;;;;;;;5.82;1.10;;;;;;;;;;4871124;29;20558;-43
2023/04/10 06:07:06;;;;;;;4.70;1.42;;;;;;;;;;4859503;29;20044;-44
2023/04/10 06:09:34;;;;;;;5.57;1.80;;;;;;;;;;4845320;29;20129;-44
2023/04/10 06:12:01;;;;;;;5.15;1.60;;;;;;;;;;4864608;29;20073;-43
2023/04/10 06:14:29;;;;;;;5.35;1.80;;;;;;;;;;4861638;29;20080;-43
2023/04/10 06:16:56;;;;;;;5.00;1.35;;;;;;;;;;4852779;29;20250;-44
2023/04/10 06:19:33;;;;;;;6.55;1.40;;;;;;;;;;4862403;29;20128;-44
2023/04/10 06:22:03;;;;;;;7.47;1.73;;;;;;;;;;4854200;29;20137;-44
2023/04/10 06:24:31;;;;;;;4.32;1.00;;;;;;;;;;4846329;29;20687;-44
2023/04/10 06:26:59;;;;;;;5.93;1.30;;;;;;;;;;4882227;29;20068;-43
2023/04/10 06:29:26;;;;;;;4.60;1.33;;;;;;;;;;4853671;29;20123;-43
2023/04/10 06:31:54;;;;;;;4.50;1.00;;;;;;;;;;4861375;29;20117;-44
2023/04/10 06:34:22;;;;;;;4.87;1.37;;;;;;;;;;4872011;29;20051;-43
2023/04/10 06:36:49;;;;;;;4.38;1.30;;;;;;;;;;4848291;29;20076;-43
2023/04/10 06:39:19;;;;;;;4.57;0.75;;;;;;;;;;4857291;29;20136;-43
2023/04/10 06:41:47;;;;;;;4.70;1.10;;;;;;;;;;4849615;29;20946;-43
2023/04/10 06:44:14;;;;;;;3.95;0.68;;;;;;;;;;4875707;29;20084;-44
2023/04/10 06:46:42;;;;;;;3.00;0.50;;;;;;;;;;4868229;29;20076;-44
2023/04/10 06:49:10;;;;;;;3.08;0.50;;;;;;;;;;4863937;29;20136;-44
2023/04/10 06:51:37;;;;;;;4.25;0.95;;;;;;;;;;4861513;29;20120;-44
2023/04/10 06:54:05;;;;;;;3.17;0.52;;;;;;;;;;4854478;29;20041;-43
2023/04/10 06:56:34;;;;;;;3.45;0.57;;;;;;;;;;4841387;29;20045;-45
2023/04/10 06:59:02;;;;;;;2.53;0.50;;;;;;;;;;4859519;29;20089;-43
2023/04/10 07:01:30;;;;;;;2.60;0.50;;;;;;;;;;4862755;29;20045;-45
2023/04/10 07:03:58;;;;;;;2.65;0.43;;;;;;;;;;4866170;29;20056;-44
2023/04/10 07:06:26;;;;;;;2.42;0.40;;;;;;;;;;4872066;29;20148;-44
2023/04/10 07:08:55;;;;;;;2.72;0.50;;;;;;;;;;4870566;29;20519;-44
2023/04/10 07:11:24;;;;;;;2.77;0.70;;;;;;;;;;4844443;29;20483;-48
2023/04/10 07:13:57;;;;;;;2.97;0.38;;;;;;;;;;4861445;29;20045;-45
2023/04/10 07:16:26;;;;;;;3.00;0.70;;;;;;;;;;4852793;29;20084;-46
2023/04/10 07:18:54;;;;;;;2.42;0.35;;;;;;;;;;4853662;29;20051;-46
2023/04/10 07:21:21;;;;;;;2.53;0.40;;;;;;;;;;4857000;29;20045;-45
2023/04/10 07:23:49;;;;;;;1.83;0.30;;;;;;;;;;4869513;29;20112;-44
2023/04/10 07:26:17;;;;;;;3.70;0.40;;;;;;;;;;4863508;29;20087;-44
2023/04/10 07:28:44;;;;;;;1.92;0.45;;;;;;;;;;4855382;29;20735;-44
2023/04/10 07:31:13;;;;;;;2.38;0.30;;;;;;;;;;4850296;29;20332;-44
2023/04/10 07:33:41;;;;;;;1.85;0.40;;;;;;;;;;4870090;29;20048;-44
2023/04/10 07:36:09;;;;;;;1.47;0.20;;;;;;;;;;4856651;29;20125;-44
2023/04/10 07:38:38;;;;;;;1.52;0.30;;;;;;;;;;4857148;29;20930;-43
2023/04/10 07:41:06;;;;;;;1.92;0.30;;;;;;;;;;4879124;29;20052;-44
2023/04/10 07:43:34;;;;;;;3.00;0.20;;;;;;;;;;4864473;29;20526;-44
2023/04/10 07:46:02;;;;;;;2.75;0.38;;;;;;;;;;4867244;29;20041;-45
2023/04/10 07:48:31;;;;;;;2.63;0.60;;;;;;;;;;4857475;29;20033;-44
2023/04/10 07:50:58;;;;;;;3.17;0.40;;;;;;;;;;4863567;29;20128;-45
2023/04/10 07:53:26;;;;;;;2.47;0.30;;;;;;;;;;4851790;29;20040;-45
2023/04/10 07:55:53;;;;;;;1.52;0.30;;;;;;;;;;4848037;29;20068;-43
2023/04/10 07:58:21;;;;;;;3.10;0.35;;;;;;;;;;4861917;29;20064;-45
2023/04/10 08:00:50;;;;;;;1.83;0.30;;;;;;;;;;4848861;29;20547;-43
2023/04/10 08:03:18;;;;;;;2.17;0.40;;;;;;;;;;4864592;29;20147;-43
2023/04/10 08:05:47;;;;;;;1.75;0.30;;;;;;;;;;4878149;29;20071;-43
2023/04/10 08:08:16;;;;;;;2.35;0.45;;;;;;;;;;4858133;29;20095;-43
2023/04/10 08:10:43;;;;;;;2.28;0.55;;;;;;;;;;4869763;29;20036;-44
2023/04/10 08:13:11;;;;;;;1.60;0.20;;;;;;;;;;4872607;29;20508;-45
2023/04/10 08:15:39;;;;;;;2.60;0.50;;;;;;;;;;4864840;29;20041;-44
2023/04/10 08:18:07;;;;;;;1.85;0.40;;;;;;;;;;4859775;29;20037;-44
2023/04/10 08:20:35;;;;;;;1.98;0.40;;;;;;;;;;4868698;29;20408;-45
2023/04/10 08:23:05;;;;;;;2.13;0.50;;;;;;;;;;4873969;29;20044;-44
2023/04/10 08:25:39;;;;;;;2.73;0.50;;;;;;;;;;4848396;29;20503;-43
2023/04/10 08:28:06;;;;;;;2.00;0.40;;;;;;;;;;4878317;29;20379;-44
2023/04/10 08:30:34;;;;;;;2.10;0.40;;;;;;;;;;4851584;29;20073;-45
2023/04/10 08:33:02;;;;;;;2.22;0.50;;;;;;;;;;4861966;29;20056;-44
2023/04/10 08:35:31;;;;;;;2.28;0.50;;;;;;;;;;4871573;29;20055;-44
2023/04/10 08:37:59;;;;;;;2.87;0.60;;;;;;;;;;4872645;29;20511;-46
2023/04/10 08:40:44;;;;;;;2.70;0.50;;;;;;;;;;4873978;29;20507;-44
2023/04/10 08:43:16;;;;;;;2.70;0.57;;;;;;;;;;4860685;29;20041;-45
2023/04/10 08:45:44;;;;;;;3.88;0.60;;;;;;;;;;4845150;29;20110;-45
2023/04/10 08:48:13;;;;;;;2.53;0.68;;;;;;;;;;4852753;29;20275;-45
2023/04/10 08:50:42;;;;;;;3.33;0.80;;;;;;;;;;4873403;29;20603;-45
2023/04/10 08:53:10;;;;;;;3.08;0.70;;;;;;;;;;4868350;29;20080;-46
2023/04/10 08:55:38;;;;;;;2.25;0.40;;;;;;;;;;4852778;29;20045;-44
2023/04/10 08:58:07;;;;;;;4.47;0.70;;;;;;;;;;4866563;29;20112;-44
2023/04/10 09:00:37;;;;;;;2.70;0.68;;;;;;;;;;4853212;29;20480;-43
2023/04/10 09:03:07;;;;;;;2.67;0.70;;;;;;;;;;4860833;29;20033;-46
2023/04/10 09:05:35;;;;;;;2.05;0.40;;;;;;;;;;4870065;29;20616;-45
2023/04/10 09:08:03;;;;;;;3.05;0.40;;;;;;;;;;4845267;29;20076;-44
2023/04/10 09:10:30;;;;;;;2.53;0.40;;;;;;;;;;4855087;29;20586;-43
2023/04/10 09:12:58;;;;;;;3.95;0.63;;;;;;;;;;4865191;29;20075;-43
2023/04/10 09:15:28;;;;;;;5.20;0.97;;;;;;;;;;4873357;29;20075;-43
2023/04/10 09:17:57;;;;;;;3.67;0.60;;;;;;;;;;4869150;29;20097;-44
2023/04/10 09:20:25;;;;;;;3.80;0.50;;;;;;;;;;4856168;29;20064;-44
2023/04/10 09:22:53;;;;;;;4.80;1.00;;;;;;;;;;4856847;29;20128;-45
2023/04/10 09:25:33;;;;;;;6.65;0.82;;;;;;;;;;4873552;29;20049;-43
2023/04/10 09:28:02;;;;;;;5.97;1.00;;;;;;;;;;4844622;29;20249;-45
2023/04/10 09:30:35;;;;;;;6.35;0.60;;;;;;;;;;4873596;29;20134;-44
2023/04/10 09:33:03;;;;;;;4.13;0.70;;;;;;;;;;4856969;29;20491;-43
2023/04/10 09:35:38;;;;;;;3.50;0.50;;;;;;;;;;4540906;29;9999816;-44
2023/04/10 09:38:17;;;;;;;3.00;0.70;;;;;;;;;;4857135;29;20041;-43
2023/04/10 09:40:48;;;;;;;3.40;0.70;;;;;;;;;;4865065;29;20065;-43
2023/04/10 09:43:20;;;;;;;5.68;0.57;;;;;;;;;;4858303;29;20147;-42
2023/04/10 09:45:50;;;;;;;4.65;0.98;;;;;;;;;;4867445;29;20069;-42
2023/04/10 09:48:18;;;;;;;4.07;0.63;;;;;;;;;;4854714;29;21242;-44
2023/04/10 09:50:46;;;;;;;2.75;0.70;;;;;;;;;;4875779;29;20574;-43
2023/04/10 09:53:15;;;;;;;3.03;0.50;;;;;;;;;;4853141;29;20083;-43
2023/04/10 09:55:44;;;;;;;7.30;0.77;;;;;;;;;;4866963;29;20040;-43
2023/04/10 09:58:11;;;;;;;4.82;0.50;;;;;;;;;;4852654;29;20049;-43
2023/04/10 10:00:40;;;;;;;3.50;0.73;;;;;;;;;;4865175;29;20057;-44
2023/04/10 10:03:10;;;;;;;5.20;0.83;;;;;;;;;;4512154;29;10000645;-42
2023/04/10 10:05:39;;;;;;;3.90;0.55;;;;;;;;;;4865822;29;20040;-44
2023/04/10 10:08:08;;;;;;;4.15;0.80;;;;;;;;;;4855175;29;20524;-42
2023/04/10 10:10:41;;;;;;;4.68;0.80;;;;;;;;;;4869770;29;20151;-42
2023/04/10 10:13:16;;;;;;;5.50;0.63;;;;;;;;;;4869874;29;20408;-47
2023/04/10 10:15:46;;;;;;;4.03;0.60;;;;;;;;;;4851955;29;20037;-44
2023/04/10 10:18:19;;;;;;;4.03;0.80;;;;;;;;;;4866971;29;20075;-43
2023/04/10 10:20:48;;;;;;;6.43;0.85;;;;;;;;;;4857396;29;20123;-43
2023/04/10 10:23:17;;;;;;;4.80;0.70;;;;;;;;;;4869045;29;20512;-42
2023/04/10 10:25:45;;;;;;;4.03;1.00;;;;;;;;;;4862917;29;20535;-43
2023/04/10 10:28:13;;;;;;;2.47;0.50;;;;;;;;;;4857582;29;20131;-44
2023/04/10 10:30:42;;;;;;;8.07;1.20;;;;;;;;;;4859011;29;20035;-43
2023/04/10 10:33:10;;;;;;;4.25;0.93;;;;;;;;;;4859656;29;20116;-42
2023/04/10 10:35:39;;;;;;;9.85;1.08;;;;;;;;;;4864260;29;20123;-43
2023/04/10 10:38:07;;;;;;;8.73;1.13;;;;;;;;;;4864460;29;20092;-43
2023/04/10 10:40:41;;;;;;;6.35;0.90;;;;;;;;;;4862666;29;20523;-43
2023/04/10 10:43:12;;;;;;;4.47;1.00;;;;;;;;;;4844496;29;20048;-43
2023/04/10 10:45:44;;;;;;;3.80;0.80;;;;;;;;;;4855327;29;20976;-45
2023/04/10 10:48:12;;;;;;;5.63;0.82;;;;;;;;;;4860345;29;20044;-42
2023/04/10 10:50:55;;;;;;;6.87;0.80;;;;;;;;;;4864499;29;20127;-43
2023/04/10 10:53:37;;;;;;;7.03;0.88;;;;;;;;;;4852563;29;20036;-43
2023/04/10 10:56:25;;;;;;;5.95;1.02;;;;;;;;;;4865924;29;20056;-46
2023/04/10 10:58:56;;;;;;;5.38;1.00;;;;;;;;;;4849626;29;20053;-44
2023/04/10 11:01:24;;;;;;;5.45;0.57;;;;;;;;;;4851904;29;20051;-43
2023/04/10 11:03:51;;;;;;;4.93;0.67;;;;;;;;;;4875291;29;20495;-46
2023/04/10 11:06:21;;;;;;;6.13;1.00;;;;;;;;;;4833805;29;20268;-44
2023/04/10 11:08:51;;;;;;;5.88;0.73;;;;;;;;;;4865830;29;20044;-44
2023/04/10 11:11:22;;;;;;;8.32;0.93;;;;;;;;;;4824775;29;20033;-43
2023/04/10 11:14:09;;;;;;;6.72;1.02;;;;;;;;;;4847387;29;20652;-46
2023/04/10 11:16:43;;;;;;;5.13;0.70;;;;;;;;;;4846799;29;20068;-44
2023/04/10 11:19:12;;;;;;;9.43;0.98;;;;;;;;;;4837912;29;20059;-44
2023/04/10 11:22:04;;;;;;;10.13;1.20;;;;;;;;;;4841578;29;20059;-43
2023/04/10 11:24:51;;;;;;;6.13;1.10;;;;;;;;;;4835208;29;20072;-44
2023/04/10 11:27:48;;;;;;;6.68;1.30;;;;;;;;;;4835910;29;20052;-44
2023/04/10 11:30:29;;;;;;;6.60;0.90;;;;;;;;;;4788472;29;20672;-43
2023/04/10 11:32:59;;;;;;;5.20;0.63;;;;;;;;;;4827694;29;20163;-43
2023/04/10 11:35:27;;;;;;;5.65;0.75;;;;;;;;;;4840315;29;20049;-44
2023/04/10 11:38:09;;;;;;;3.50;0.57;;;;;;;;;;4844613;29;20060;-43
2023/04/10 11:40:52;;;;;;;3.05;0.70;;;;;;;;;;4808863;29;20048;-44
2023/04/10 11:43:20;;;;;;;4.43;0.70;;;;;;;;;;4854439;29;20047;-45
2023/04/10 11:45:47;;;;;;;5.68;0.60;;;;;;;;;;4856143;29;20163;-47
2023/04/10 11:48:16;;;;;;;4.80;0.70;;;;;;;;;;4860984;29;20475;-46
2023/04/10 11:50:44;;;;;;;4.65;0.65;;;;;;;;;;4839503;29;20101;-43
2023/04/10 11:53:20;;;;;;;4.07;0.77;;;;;;;;;;4858672;29;20577;-45
2023/04/10 11:55:48;;;;;;;8.23;1.00;;;;;;;;;;4854423;29;20124;-45
2023/04/10 11:58:24;;;;;;;6.20;1.05;;;;;;;;;;4869872;29;20864;-44
2023/04/10 12:00:58;;;;;;;4.80;1.13;;;;;;;;;;4856252;29;20036;-43
2023/04/10 12:03:36;;;;;;;7.43;0.88;;;;;;;;;;4527038;29;10001255;-43
2023/04/10 12:06:06;;;;;;;4.97;0.90;;;;;;;;;;4859910;29;20588;-44
2023/04/10 12:08:36;;;;;;;6.67;0.90;;;;;;;;;;4865193;29;20151;-43
2023/04/10 12:11:03;;;;;;;5.05;0.65;;;;;;;;;;4859805;29;20040;-43
2023/04/10 12:13:31;;;;;;;7.07;1.20;;;;;;;;;;4870249;29;20385;-44
2023/04/10 12:16:00;;;;;;;4.53;1.17;;;;;;;;;;4868366;29;20063;-43
2023/04/10 12:18:28;;;;;;;4.25;0.77;;;;;;;;;;4852795;29;20051;-43
2023/04/10 12:20:57;;;;;;;9.67;1.27;;;;;;;;;;4873997;29;20041;-43
2023/04/10 12:23:25;;;;;;;5.80;0.70;;;;;;;;;;4850050;29;20088;-45
2023/04/10 12:26:07;;;;;;;4.05;0.60;;;;;;;;;;4861918;29;20052;-43
2023/04/10 12:28:36;;;;;;;3.92;0.70;;;;;;;;;;4853307;29;20654;-43
2023/04/10 12:31:04;;;;;;;5.22;0.40;;;;;;;;;;4862882;29;20109;-44
2023/04/10 12:33:31;;;;;;;5.93;0.70;;;;;;;;;;4866709;29;20409;-43
2023/04/10 12:36:00;;;;;;;9.38;0.70;;;;;;;;;;4881825;29;20547;-44
2023/04/10 12:38:41;;;;;;;5.18;1.08;;;;;;;;;;4850512;29;20051;-43
2023/04/10 12:41:11;;;;;;;3.60;0.80;;;;;;;;;;4868759;29;20068;-44
2023/04/10 12:43:43;;;;;;;3.20;0.50;;;;;;;;;;4836925;29;20548;-43
2023/04/10 12:46:22;;;;;;;4.53;0.60;;;;;;;;;;4855285;29;20144;-43
2023/04/10 12:48:50;;;;;;;4.05;0.52;;;;;;;;;;4850399;29;20052;-44
2023/04/10 12:51:17;;;;;;;3.88;0.60;;;;;;;;;;4862265;29;20063;-43
2023/04/10 12:53:46;;;;;;;5.35;0.98;;;;;;;;;;4857047;29;20089;-43
2023/04/10 12:56:17;;;;;;;4.30;0.60;;;;;;;;;;4857505;29;20075;-43
2023/04/10 12:58:44;;;;;;;2.60;0.40;;;;;;;;;;4855240;29;20906;-44
2023/04/10 13:01:13;;;;;;;3.95;0.50;;;;;;;;;;4845223;29;20054;-43
2023/04/10 13:03:41;;;;;;;3.15;0.40;;;;;;;;;;4869910;29;20048;-43
2023/04/10 13:06:09;;;;;;;3.75;0.47;;;;;;;;;;4869256;29;20208;-45
2023/04/10 13:08:37;;;;;;;4.75;1.10;;;;;;;;;;4863345;29;20330;-46
2023/04/10 13:11:05;;;;;;;3.87;0.60;;;;;;;;;;4858080;29;20495;-44
2023/04/10 13:13:35;;;;;;;6.35;0.73;;;;;;;;;;4852139;29;20052;-45
2023/04/10 13:16:02;;;;;;;7.38;0.98;;;;;;;;;;4841861;29;20049;-43
2023/04/10 13:18:30;;;;;;;3.60;0.77;;;;;;;;;;4863879;29;20072;-44
2023/04/10 13:20:58;;;;;;;5.18;0.95;;;;;;;;;;4859329;29;20049;-43
2023/04/10 13:23:27;;;;;;;9.87;0.90;;;;;;;;;;4836904;29;20032;-44
2023/04/10 13:25:57;;;;;;;4.50;0.57;;;;;;;;;;4863181;29;20132;-44
2023/04/10 13:28:25;;;;;;;3.67;0.40;;;;;;;;;;4860554;29;20041;-45
2023/04/10 13:30:55;;;;;;;4.20;0.73;;;;;;;;;;4831028;29;20745;-43
2023/04/10 13:33:23;;;;;;;4.00;0.63;;;;;;;;;;4152327;29;9999971;-44
2023/04/10 13:35:54;;;;;;;3.75;0.68;;;;;;;;;;4823721;29;20053;-45
2023/04/10 13:38:21;;;;;;;4.07;0.67;;;;;;;;;;4815121;29;20049;-44
2023/04/10 13:40:49;;;;;;;3.67;0.60;;;;;;;;;;4832559;29;20092;-44
2023/04/10 13:43:17;;;;;;;3.33;0.50;;;;;;;;;;4810992;29;20054;-44
2023/04/10 13:45:45;;;;;;;4.85;0.50;;;;;;;;;;4824554;29;20129;-48
2023/04/10 13:48:15;;;;;;;6.78;0.90;;;;;;;;;;4836972;29;20500;-44
2023/04/10 13:50:45;;;;;;;9.37;1.00;;;;;;;;;;4813706;29;20045;-43
2023/04/10 13:53:14;;;;;;;5.75;1.08;;;;;;;;;;4837593;29;20088;-44
2023/04/10 13:55:49;;;;;;;6.84;0.66;;;;;;;;;;4683402;29;10000902;-44
2023/04/10 13:58:18;;;;;;;6.03;0.70;;;;;;;;;;4803459;29;20333;-43
2023/04/10 14:00:45;;;;;;;4.90;0.88;;;;;;;;;;4824675;29;21004;-44
2023/04/10 14:03:15;;;;;;;4.47;0.70;;;;;;;;;;4832122;29;20086;-43
2023/04/10 14:05:44;;;;;;;5.40;0.75;;;;;;;;;;4826327;29;20513;-44
2023/04/10 14:08:14;;;;;;;7.45;0.95;;;;;;;;;;4823569;29;20076;-42
2023/04/10 14:10:42;;;;;;;4.43;0.75;;;;;;;;;;4811986;29;20089;-43
2023/04/10 14:13:10;;;;;;;5.57;0.88;;;;;;;;;;4830809;29;20133;-44
2023/04/10 14:15:38;;;;;;;4.77;0.40;;;;;;;;;;4807215;29;20788;-43
2023/04/10 14:18:05;;;;;;;3.83;0.60;;;;;;;;;;4821136;29;20496;-43
2023/04/10 14:20:35;;;;;;;5.47;0.70;;;;;;;;;;4839926;29;20053;-43
2023/04/10 14:23:02;;;;;;;3.40;0.40;;;;;;;;;;4821594;29;20105;-45
2023/04/10 14:25:30;;;;;;;3.05;0.40;;;;;;;;;;4814777;29;20053;-43
2023/04/10 14:27:59;;;;;;;2.97;0.50;;;;;;;;;;4819144;29;20767;-43
2023/04/10 14:30:29;;;;;;;5.03;0.60;;;;;;;;;;4830527;29;20044;-43
2023/04/10 14:32:57;;;;;;;4.30;0.80;;;;;;;;;;4861105;29;20056;-44
2023/04/10 14:35:25;;;;;;;4.30;0.70;;;;;;;;;;4853670;29;20539;-43
2023/04/10 14:37:54;;;;;;;4.43;0.68;;;;;;;;;;4862075;29;20132;-44
2023/04/10 14:40:22;;;;;;;4.17;0.40;;;;;;;;;;4843365;29;20069;-44
2023/04/10 14:42:51;;;;;;;4.07;0.70;;;;;;;;;;4873338;29;20124;-45
2023/04/10 14:45:19;;;;;;;5.28;0.80;;;;;;;;;;4856944;29;20104;-43
2023/04/10 14:47:47;;;;;;;5.68;0.63;;;;;;;;;;4855573;29;20083;-43
2023/04/10 14:50:15;;;;;;;6.57;0.95;;;;;;;;;;4839874;29;20193;-44